Time;durP1;ratioP1;P1;durP2;ratioP2;P2;SDS_P1;SDS_P2;PMS_P1;PMS_P2;Temp;Humidity;BMP_temperature;BMP_pressure;BME280_temperature;BME280_humidity;BME280_pressure;Samples;Min_cycle;Max_cycle;Signal;HPM_P1;HPM_P2
2023/02/14 00:01:25;;;;;;;30.07;19.10;;;8.00;99.90;;;;;;5054205;28;20445;-48
2023/02/14 00:03:51;;;;;;;30.40;18.47;;;8.20;99.90;;;;;;5072165;28;20444;-51
2023/02/14 00:06:19;;;;;;;32.40;19.00;;;8.00;99.90;;;;;;5072196;28;20435;-51
2023/02/14 00:08:46;;;;;;;29.70;18.70;;;8.10;99.90;;;;;;5071720;28;20411;-51
2023/02/14 00:11:14;;;;;;;32.17;18.80;;;8.00;99.90;;;;;;5072184;28;20457;-52
2023/02/14 00:15:20;;;;;;;31.10;19.50;;;8.20;99.90;;;;;;5054224;28;20515;-51
2023/02/14 00:16:27;;;;;;;32.97;21.07;;;8.00;99.90;;;;;;5071975;28;20453;-51
2023/02/14 00:19:06;;;;;;;29.53;19.67;;;7.30;99.90;;;;;;5071912;28;20481;-49
2023/02/14 00:21:35;;;;;;;35.40;20.80;;;7.90;99.90;;;;;;5072081;28;20206;-52
2023/02/14 00:24:02;;;;;;;29.57;19.53;;;7.90;99.90;;;;;;5071852;28;20411;-52
2023/02/14 00:26:29;;;;;;;25.67;17.77;;;7.50;99.90;;;;;;5071820;28;20431;-50
2023/02/14 00:28:56;;;;;;;29.13;18.60;;;7.70;99.90;;;;;;5053644;28;20424;-50
2023/02/14 00:31:23;;;;;;;35.73;19.83;;;8.10;99.90;;;;;;5053981;28;20446;-51
2023/02/14 00:33:50;;;;;;;28.30;18.40;;;8.10;99.90;;;;;;5054005;28;20430;-51
2023/02/14 00:36:19;;;;;;;32.37;19.77;;;7.90;99.90;;;;;;5071947;28;20435;-51
2023/02/14 00:38:47;;;;;;;31.87;20.33;;;8.10;99.90;;;;;;5072885;28;20512;-51
2023/02/14 00:41:18;;;;;;;27.27;18.57;;;7.80;99.90;;;;;;5061170;28;20424;-50
2023/02/14 00:43:45;;;;;;;24.67;16.80;;;8.00;99.90;;;;;;5054144;28;20793;-51
2023/02/14 00:46:12;;;;;;;27.63;19.10;;;8.10;99.90;;;;;;5071915;28;20476;-51
2023/02/14 00:48:40;;;;;;;29.50;18.27;;;7.40;99.90;;;;;;5071459;28;20422;-50
2023/02/14 00:51:08;;;;;;;28.03;18.13;;;7.40;99.90;;;;;;5071760;28;20512;-50
2023/02/14 00:53:35;;;;;;;33.57;20.00;;;8.20;99.90;;;;;;5071852;28;20404;-51
2023/02/14 00:56:03;;;;;;;29.43;18.30;;;7.90;99.90;;;;;;5071669;28;20482;-51
2023/02/14 00:58:30;;;;;;;32.10;18.50;;;8.00;99.90;;;;;;5071301;28;20404;-51
2023/02/14 01:00:57;;;;;;;32.23;19.63;;;7.70;99.90;;;;;;5071594;28;20457;-51
2023/02/14 01:03:24;;;;;;;32.83;18.90;;;8.00;99.90;;;;;;5053508;28;20447;-50
2023/02/14 01:05:51;;;;;;;30.07;19.90;;;8.00;99.90;;;;;;5057376;28;20481;-51
2023/02/14 01:08:18;;;;;;;31.40;20.17;;;7.90;99.90;;;;;;5075366;28;20765;-51
2023/02/14 01:10:45;;;;;;;29.70;17.60;;;7.50;99.90;;;;;;5057622;28;20445;-51
2023/02/14 01:13:14;;;;;;;30.20;20.00;;;8.00;99.90;;;;;;5075676;28;20784;-50
2023/02/14 01:15:41;;;;;;;30.27;19.23;;;7.90;99.90;;;;;;5075698;28;20432;-50
2023/02/14 01:18:08;;;;;;;28.93;19.47;;;7.80;99.90;;;;;;5075166;28;20516;-50
2023/02/14 01:20:35;;;;;;;29.83;19.07;;;8.10;99.90;;;;;;5075451;28;20759;-50
2023/02/14 01:23:02;;;;;;;29.37;18.07;;;7.80;99.90;;;;;;5075335;28;20406;-50
2023/02/14 01:25:29;;;;;;;28.50;19.33;;;7.70;99.90;;;;;;5057235;28;20479;-51
2023/02/14 01:27:58;;;;;;;25.20;17.97;;;8.00;99.90;;;;;;5057367;28;20536;-50
2023/02/14 01:30:26;;;;;;;31.50;18.97;;;7.40;99.90;;;;;;5074841;28;20436;-50
2023/02/14 01:32:53;;;;;;;29.03;18.00;;;7.80;99.90;;;;;;5075153;28;20414;-50
2023/02/14 01:35:20;;;;;;;31.23;18.47;;;7.80;99.90;;;;;;5056997;28;21095;-50
2023/02/14 01:37:47;;;;;;;28.20;18.53;;;8.00;99.90;;;;;;5056990;28;20412;-50
2023/02/14 01:40:14;;;;;;;30.60;18.50;;;8.00;99.90;;;;;;5074669;28;20430;-50
2023/02/14 01:42:43;;;;;;;33.73;18.90;;;7.80;99.90;;;;;;5056927;28;20443;-50
2023/02/14 01:45:17;;;;;;;27.77;18.60;;;8.10;99.90;;;;;;5074784;28;20932;-49
2023/02/14 01:47:49;;;;;;;28.20;18.13;;;7.80;99.90;;;;;;5074951;28;20405;-50
2023/02/14 01:50:21;;;;;;;25.67;17.80;;;8.00;99.90;;;;;;5056535;28;20910;-50
2023/02/14 01:52:52;;;;;;;29.37;18.13;;;7.90;99.90;;;;;;5075197;28;20446;-49
2023/02/14 01:55:21;;;;;;;32.80;20.40;;;7.80;99.90;;;;;;5056828;28;20446;-50
2023/02/14 01:57:52;;;;;;;32.07;19.60;;;8.10;99.90;;;;;;5056767;28;20436;-51
2023/02/14 02:00:57;;;;;;;31.00;19.63;;;7.90;99.90;;;;;;5056349;28;20456;-50
2023/02/14 02:03:31;;;;;;;27.53;19.50;;;7.90;99.90;;;;;;5056869;28;20445;-51
2023/02/14 02:06:05;;;;;;;32.03;19.40;;;7.80;99.90;;;;;;5078843;28;20490;-50
2023/02/14 02:08:34;;;;;;;27.77;18.43;;;7.40;99.90;;;;;;5080282;28;20411;-51
2023/02/14 02:11:01;;;;;;;34.20;20.77;;;8.40;99.90;;;;;;5074705;28;20436;-51
2023/02/14 02:13:27;;;;;;;28.40;19.63;;;8.00;99.90;;;;;;5074951;28;20889;-51
2023/02/14 02:16:13;;;;;;;26.40;18.13;;;7.90;99.90;;;;;;5073878;28;20515;-51
2023/02/14 02:18:55;;;;;;;29.20;19.60;;;7.90;99.90;;;;;;5056068;28;20448;-51
2023/02/14 02:22:00;;;;;;;27.40;18.60;;;8.20;99.90;;;;;;5074227;28;20444;-51
2023/02/14 02:24:34;;;;;;;30.97;19.10;;;8.20;99.90;;;;;;5056203;28;20456;-50
2023/02/14 02:27:19;;;;;;;31.57;19.67;;;7.90;99.90;;;;;;5056136;28;20452;-51
2023/02/14 02:30:16;;;;;;;28.57;18.83;;;8.00;99.90;;;;;;5073682;28;20829;-51
2023/02/14 02:33:14;;;;;;;27.00;18.40;;;8.00;99.90;;;;;;5074096;28;20405;-51
2023/02/14 02:35:57;;;;;;;31.87;19.63;;;8.00;99.90;;;;;;5045353;28;21077;-52
2023/02/14 02:38:42;;;;;;;29.33;19.63;;;7.90;99.90;;;;;;5073617;28;20429;-52
2023/02/14 02:41:18;;;;;;;30.47;18.80;;;8.00;99.90;;;;;;5073983;28;20945;-50
2023/02/14 02:43:53;;;;;;;29.07;18.93;;;7.90;99.90;;;;;;5073758;28;20427;-50
2023/02/14 02:53:01;;;;;;;31.63;19.57;;;7.50;99.90;;;;;;5072050;28;20442;-50
2023/02/14 02:55:00;;;;;;;31.13;21.07;;;8.10;99.90;;;;;;5073409;28;20982;-50
2023/02/14 02:57:32;;;;;;;28.53;18.83;;;7.40;99.90;;;;;;5073620;28;20787;-51
2023/02/14 03:00:01;;;;;;;33.20;19.63;;;7.70;99.90;;;;;;5073126;28;20429;-49
2023/02/14 03:04:46;;;;;;;29.80;18.93;;;7.40;99.90;;;;;;5055361;28;20969;-50
2023/02/14 03:05:18;;;;;;;31.17;19.93;;;7.60;99.90;;;;;;5073020;28;20503;-50
2023/02/14 03:07:48;;;;;;;35.43;21.20;;;8.00;99.90;;;;;;5073264;28;20403;-50
2023/02/14 03:10:19;;;;;;;31.53;20.33;;;7.70;99.90;;;;;;5073156;28;20187;-49
2023/02/14 03:13:09;;;;;;;38.73;21.07;;;7.90;99.90;;;;;;5055258;28;20484;-50
2023/02/14 03:15:47;;;;;;;34.00;21.93;;;7.70;99.90;;;;;;5073138;28;20447;-50
2023/02/14 03:18:26;;;;;;;34.30;20.47;;;7.80;99.90;;;;;;5072712;28;20407;-51
2023/02/14 03:20:55;;;;;;;34.33;21.90;;;7.80;99.90;;;;;;5055267;28;20459;-50
2023/02/14 03:23:29;;;;;;;31.57;20.03;;;7.30;99.90;;;;;;5073189;28;20429;-51
2023/02/14 03:26:09;;;;;;;33.83;20.97;;;7.90;99.90;;;;;;5072767;28;20902;-50
2023/02/14 03:28:42;;;;;;;31.30;20.47;;;7.40;99.90;;;;;;5072205;28;20440;-50
2023/02/14 03:31:18;;;;;;;29.40;18.70;;;8.00;99.90;;;;;;5055167;28;20441;-50
2023/02/14 03:33:50;;;;;;;32.47;20.10;;;7.80;99.90;;;;;;5059499;28;20431;-51
2023/02/14 03:36:21;;;;;;;31.70;21.03;;;8.20;99.90;;;;;;5072890;28;20775;-51
2023/02/14 03:38:55;;;;;;;32.30;18.87;;;7.90;99.90;;;;;;5054669;28;20435;-51
2023/02/14 03:41:27;;;;;;;32.23;20.73;;;7.80;99.90;;;;;;5054832;28;20515;-51
2023/02/14 03:43:57;;;;;;;29.83;19.77;;;7.80;99.90;;;;;;5054721;28;20447;-51
2023/02/14 03:46:27;;;;;;;33.23;20.57;;;8.10;99.90;;;;;;5054561;28;20535;-49
2023/02/14 03:48:58;;;;;;;29.77;19.80;;;8.10;99.90;;;;;;5072613;28;20432;-50
2023/02/14 03:51:26;;;;;;;29.03;17.93;;;8.00;99.90;;;;;;5072475;28;20441;-50
2023/02/14 03:53:57;;;;;;;29.43;19.73;;;8.00;99.90;;;;;;5072465;28;20404;-49
2023/02/14 03:56:32;;;;;;;30.80;20.27;;;8.00;99.90;;;;;;5072331;28;20981;-50
2023/02/14 03:59:04;;;;;;;25.37;17.70;;;7.60;99.90;;;;;;5071914;28;20762;-51
2023/02/14 04:01:36;;;;;;;34.40;19.50;;;7.90;99.90;;;;;;5072321;28;20422;-50
2023/02/14 04:04:05;;;;;;;31.00;17.83;;;7.30;99.90;;;;;;5072276;28;20889;-50
2023/02/14 04:06:32;;;;;;;33.43;20.40;;;8.10;99.90;;;;;;5054137;28;21004;-51
2023/02/14 04:08:59;;;;;;;30.50;19.03;;;7.30;99.90;;;;;;5071981;28;20857;-51
2023/02/14 04:11:26;;;;;;;32.57;18.37;;;7.70;99.90;;;;;;5072272;28;20804;-51
2023/02/14 04:13:53;;;;;;;32.50;19.90;;;7.70;99.90;;;;;;5072139;28;20411;-50
2023/02/14 04:16:20;;;;;;;29.57;19.43;;;7.50;99.90;;;;;;5071915;28;20435;-50
2023/02/14 04:21:30;;;;;;;32.80;19.10;;;7.40;99.90;;;;;;5072472;28;20795;-51
2023/02/14 04:23:57;;;;;;;33.03;20.60;;;7.70;99.90;;;;;;5072094;28;20434;-51
2023/02/14 04:26:25;;;;;;;30.03;19.30;;;7.90;99.90;;;;;;5072004;28;20459;-50
2023/02/14 04:28:52;;;;;;;29.97;18.90;;;7.50;99.90;;;;;;5071866;28;20788;-51
2023/02/14 04:31:18;;;;;;;32.73;20.30;;;7.90;99.90;;;;;;5072217;28;21065;-49
2023/02/14 04:33:46;;;;;;;31.80;20.10;;;7.70;99.90;;;;;;5072086;28;20406;-50
2023/02/14 04:36:13;;;;;;;33.33;20.90;;;8.00;99.90;;;;;;5071869;28;20449;-49
2023/02/14 04:38:40;;;;;;;29.43;18.90;;;8.10;99.90;;;;;;5071453;28;20775;-50
2023/02/14 04:41:07;;;;;;;28.97;19.73;;;7.80;99.90;;;;;;5071882;28;20430;-51
2023/02/14 04:43:35;;;;;;;33.80;20.77;;;7.90;99.90;;;;;;5053683;28;20568;-50
2023/02/14 04:46:01;;;;;;;27.83;19.10;;;7.80;99.90;;;;;;5071589;28;20448;-52
2023/02/14 04:48:28;;;;;;;34.67;19.50;;;8.50;99.90;;;;;;5071536;28;20447;-50
2023/02/14 04:50:55;;;;;;;34.73;20.30;;;8.10;99.90;;;;;;5072144;28;20408;-50
2023/02/14 04:53:22;;;;;;;32.20;18.43;;;7.70;99.90;;;;;;5071813;28;20425;-51
2023/02/14 04:55:49;;;;;;;32.40;19.70;;;7.90;99.90;;;;;;5071743;28;20424;-50
2023/02/14 04:58:15;;;;;;;33.13;19.20;;;8.00;99.90;;;;;;5076026;28;20433;-50
2023/02/14 05:00:43;;;;;;;27.57;18.57;;;7.70;99.90;;;;;;5077233;28;20416;-50
2023/02/14 05:03:10;;;;;;;29.07;19.20;;;7.70;99.90;;;;;;5071821;28;20782;-51
2023/02/14 05:05:37;;;;;;;29.70;19.07;;;7.80;99.90;;;;;;5071324;28;20432;-51
2023/02/14 05:08:03;;;;;;;30.77;19.50;;;7.20;99.90;;;;;;5071126;28;20414;-50
2023/02/14 05:10:30;;;;;;;35.53;20.40;;;8.00;99.90;;;;;;5071325;28;20412;-50
2023/02/14 05:12:56;;;;;;;34.80;19.37;;;7.70;99.90;;;;;;5071400;28;20421;-50
2023/02/14 05:15:23;;;;;;;31.73;20.10;;;7.70;99.90;;;;;;5071408;28;20452;-50
2023/02/14 05:17:51;;;;;;;33.73;19.10;;;8.00;99.90;;;;;;5071311;28;20434;-51
2023/02/14 05:20:18;;;;;;;33.73;18.13;;;7.60;99.90;;;;;;5071039;28;20441;-51
2023/02/14 05:22:44;;;;;;;33.70;20.90;;;7.70;99.90;;;;;;5071514;28;20412;-50
2023/02/14 05:25:11;;;;;;;40.63;22.13;;;7.80;99.90;;;;;;5071120;28;20432;-50
2023/02/14 05:27:37;;;;;;;39.40;21.40;;;7.70;99.90;;;;;;5071296;28;20995;-50
2023/02/14 05:30:05;;;;;;;34.43;20.93;;;7.20;99.90;;;;;;5070890;28;20448;-51
2023/02/14 05:32:31;;;;;;;31.93;20.23;;;7.70;99.90;;;;;;5071252;28;20464;-51
2023/02/14 05:34:59;;;;;;;30.87;21.07;;;8.00;99.90;;;;;;5071376;28;20555;-50
2023/02/14 05:37:26;;;;;;;31.67;19.83;;;7.30;99.90;;;;;;5070752;28;20491;-50
2023/02/14 05:39:53;;;;;;;35.00;20.60;;;7.80;99.90;;;;;;5070832;28;20449;-50
2023/02/14 05:42:19;;;;;;;37.47;21.30;;;7.90;99.90;;;;;;5053010;28;20439;-50
2023/02/14 05:44:47;;;;;;;34.53;20.37;;;7.70;99.90;;;;;;5070829;28;20525;-52
2023/02/14 05:47:14;;;;;;;31.10;21.40;;;7.90;99.90;;;;;;5071041;28;20473;-50
2023/02/14 05:49:40;;;;;;;35.23;21.03;;;7.30;99.90;;;;;;5070673;28;20433;-50
2023/02/14 05:52:08;;;;;;;32.27;20.90;;;7.90;99.90;;;;;;5075051;28;20412;-51
2023/02/14 05:54:35;;;;;;;30.03;20.13;;;7.70;99.90;;;;;;5074542;28;20449;-50
2023/02/14 05:57:02;;;;;;;30.30;19.20;;;7.80;99.90;;;;;;5074552;28;20428;-51
2023/02/14 05:59:28;;;;;;;33.43;19.10;;;8.10;99.90;;;;;;5074079;28;20433;-51
2023/02/14 06:01:55;;;;;;;30.40;18.67;;;7.50;99.90;;;;;;5074193;28;20925;-52
2023/02/14 06:04:22;;;;;;;30.83;20.50;;;7.80;99.90;;;;;;5074440;28;20397;-51
2023/02/14 06:06:48;;;;;;;32.00;19.07;;;8.00;99.90;;;;;;5074340;28;20484;-51
2023/02/14 06:09:18;;;;;;;35.27;18.67;;;7.40;99.90;;;;;;5073979;28;20441;-49
2023/02/14 06:11:45;;;;;;;33.70;20.80;;;7.80;99.90;;;;;;5074281;28;20441;-51
2023/02/14 06:14:11;;;;;;;33.50;21.23;;;8.10;99.90;;;;;;5074105;28;20454;-51
2023/02/14 06:16:38;;;;;;;34.60;20.00;;;7.80;99.90;;;;;;5074144;28;20444;-51
2023/02/14 06:19:04;;;;;;;33.63;19.60;;;7.80;99.90;;;;;;5073485;28;20533;-49
2023/02/14 06:21:31;;;;;;;31.93;21.00;;;7.60;99.90;;;;;;5074551;28;20503;-48
2023/02/14 06:23:58;;;;;;;30.27;20.30;;;7.20;99.90;;;;;;5074113;28;20426;-51
2023/02/14 06:26:26;;;;;;;35.50;23.23;;;7.90;99.90;;;;;;5081186;28;20827;-50
2023/02/14 06:28:53;;;;;;;33.50;20.03;;;8.10;99.90;;;;;;5073922;28;20415;-49
2023/02/14 06:31:20;;;;;;;29.93;18.93;;;7.90;99.90;;;;;;5073808;28;20445;-51
2023/02/14 06:33:46;;;;;;;31.60;19.73;;;7.70;99.90;;;;;;5073117;28;20452;-50
2023/02/14 06:36:13;;;;;;;31.50;19.60;;;7.70;99.90;;;;;;5073793;28;20446;-50
2023/02/14 06:38:40;;;;;;;32.43;18.27;;;7.80;99.90;;;;;;5073086;28;20412;-50
2023/02/14 06:41:08;;;;;;;33.33;19.80;;;7.70;99.90;;;;;;5072924;28;20436;-51
2023/02/14 06:43:37;;;;;;;29.60;19.83;;;7.80;99.90;;;;;;5073436;28;20445;-51
2023/02/14 06:46:04;;;;;;;35.90;20.63;;;7.70;99.90;;;;;;5072799;28;20465;-52
2023/02/14 06:48:31;;;;;;;38.23;21.30;;;7.80;99.90;;;;;;5072925;28;20440;-51
2023/02/14 06:50:57;;;;;;;31.43;19.27;;;7.80;99.90;;;;;;5072762;28;20427;-51
2023/02/14 06:53:24;;;;;;;34.20;20.10;;;7.80;99.90;;;;;;5073307;28;20546;-52
2023/02/14 06:55:50;;;;;;;32.23;18.17;;;7.80;99.90;;;;;;5073313;28;20430;-51
2023/02/14 06:58:17;;;;;;;30.50;19.60;;;8.00;99.90;;;;;;5054453;28;20450;-51
2023/02/14 07:00:45;;;;;;;35.43;19.33;;;7.90;99.90;;;;;;5072539;28;20438;-51
2023/02/14 07:03:12;;;;;;;30.90;20.17;;;7.80;99.90;;;;;;5073162;28;20463;-51
2023/02/14 07:05:39;;;;;;;32.67;19.33;;;7.80;99.90;;;;;;5072940;28;20469;-50
2023/02/14 07:08:06;;;;;;;31.47;20.40;;;8.40;99.90;;;;;;5054667;28;20979;-51
2023/02/14 07:10:33;;;;;;;40.50;20.00;;;7.80;99.90;;;;;;5073027;28;20474;-51
2023/02/14 07:13:00;;;;;;;32.70;20.47;;;8.00;99.90;;;;;;5072985;28;20438;-52
2023/02/14 07:15:27;;;;;;;38.93;21.07;;;7.80;99.90;;;;;;5072843;28;20428;-51
2023/02/14 07:17:55;;;;;;;35.80;21.13;;;8.00;99.90;;;;;;5072844;28;20434;-51
2023/02/14 07:20:22;;;;;;;39.93;23.83;;;7.80;99.90;;;;;;5072585;28;20438;-51
2023/02/14 07:22:49;;;;;;;39.40;23.30;;;8.10;99.90;;;;;;5072692;28;20413;-50
2023/02/14 07:25:15;;;;;;;38.50;20.13;;;8.00;99.90;;;;;;5072671;28;20944;-51
2023/02/14 07:27:42;;;;;;;36.50;20.50;;;7.70;99.90;;;;;;5072131;28;20956;-51
2023/02/14 07:30:10;;;;;;;34.33;21.30;;;8.00;99.90;;;;;;5071803;28;20411;-51
2023/02/14 07:32:37;;;;;;;36.60;20.70;;;7.90;99.90;;;;;;5072342;28;20511;-51
2023/02/14 07:35:05;;;;;;;31.60;20.77;;;8.00;99.90;;;;;;5072027;28;20424;-52
2023/02/14 07:37:32;;;;;;;36.90;20.83;;;8.20;99.90;;;;;;5054529;28;20950;-51
2023/02/14 07:39:59;;;;;;;35.67;21.40;;;8.10;99.90;;;;;;5072103;28;20448;-51
2023/02/14 07:42:25;;;;;;;31.90;20.70;;;7.70;99.90;;;;;;5072131;28;20892;-51
2023/02/14 07:44:54;;;;;;;33.20;22.03;;;8.00;99.90;;;;;;5054303;28;20557;-52
2023/02/14 07:47:20;;;;;;;37.10;21.60;;;7.70;99.90;;;;;;5072120;28;20477;-51
2023/02/14 07:49:47;;;;;;;36.87;22.50;;;7.40;99.90;;;;;;5071392;28;20445;-51
2023/02/14 07:52:15;;;;;;;41.07;23.87;;;7.50;99.90;;;;;;5074601;28;20448;-50
2023/02/14 07:54:41;;;;;;;35.63;21.13;;;8.00;99.90;;;;;;5073334;28;20472;-51
2023/02/14 07:57:08;;;;;;;41.43;23.57;;;7.70;99.90;;;;;;5072055;28;20513;-50
2023/02/14 07:59:35;;;;;;;36.90;23.33;;;8.00;99.90;;;;;;5071628;28;20411;-51
2023/02/14 08:02:01;;;;;;;39.33;22.13;;;7.90;99.90;;;;;;5071561;28;20404;-50
2023/02/14 08:04:28;;;;;;;35.20;21.43;;;8.20;99.90;;;;;;5053865;28;20428;-50
2023/02/14 08:06:55;;;;;;;35.90;21.47;;;8.30;99.90;;;;;;5070185;28;20448;-50
2023/02/14 08:09:26;;;;;;;38.27;21.60;;;8.30;99.90;;;;;;5071509;28;20440;-51
2023/02/14 08:14:38;;;;;;;39.17;24.63;;;8.50;99.90;;;;;;5071610;28;20543;-50
2023/02/14 08:17:06;;;;;;;37.60;22.20;;;7.90;99.90;;;;;;5071937;28;20426;-50
2023/02/14 08:19:33;;;;;;;39.43;22.57;;;8.40;99.90;;;;;;5071176;28;20412;-51
2023/02/14 08:21:59;;;;;;;35.30;22.17;;;8.30;99.90;;;;;;5071586;28;20416;-50
2023/02/14 08:24:27;;;;;;;38.10;24.17;;;8.30;99.90;;;;;;5071701;28;20437;-50
2023/02/14 08:26:54;;;;;;;33.13;23.60;;;8.80;99.90;;;;;;5071624;28;20440;-50
2023/02/14 08:29:21;;;;;;;34.20;22.23;;;8.50;99.90;;;;;;5071332;28;20448;-49
2023/02/14 08:31:47;;;;;;;37.93;21.97;;;8.40;99.90;;;;;;5071347;28;20420;-50
2023/02/14 08:34:15;;;;;;;39.27;24.83;;;8.40;99.90;;;;;;5071694;28;20831;-53
2023/02/14 08:36:42;;;;;;;38.13;23.90;;;8.40;99.90;;;;;;5070590;28;20441;-52
2023/02/14 08:39:09;;;;;;;40.63;24.13;;;8.80;99.90;;;;;;5071220;28;20788;-51
2023/02/14 08:41:37;;;;;;;36.57;24.40;;;8.50;99.90;;;;;;5070993;28;20436;-50
2023/02/14 08:44:04;;;;;;;33.10;24.60;;;8.40;99.90;;;;;;5053351;28;20464;-51
2023/02/14 08:46:31;;;;;;;35.47;24.30;;;8.40;99.90;;;;;;5071013;28;20757;-51
2023/02/14 08:48:58;;;;;;;33.77;22.83;;;8.70;99.90;;;;;;5070744;28;20547;-50
2023/02/14 08:51:25;;;;;;;36.50;25.17;;;8.80;99.90;;;;;;5070764;28;20785;-51
2023/02/14 08:53:53;;;;;;;37.43;27.10;;;8.70;99.90;;;;;;5070493;28;21016;-51
2023/02/14 08:56:21;;;;;;;42.08;32.00;;;8.90;99.90;;;;;;5070205;28;20438;-53
2023/02/14 08:58:52;;;;;;;51.77;39.60;;;9.20;99.90;;;;;;5071144;28;20192;-53
2023/02/14 09:01:19;;;;;;;35.73;25.20;;;9.30;99.90;;;;;;5071239;28;20459;-51
2023/02/14 09:03:45;;;;;;;37.73;25.10;;;9.10;99.90;;;;;;5071685;28;20437;-50
2023/02/14 09:06:16;;;;;;;36.97;25.20;;;9.20;99.90;;;;;;5071034;28;20431;-51
2023/02/14 09:08:43;;;;;;;48.47;23.97;;;9.30;99.90;;;;;;5070831;28;20554;-51
2023/02/14 09:11:12;;;;;;;36.80;24.73;;;8.50;99.90;;;;;;5071359;28;20477;-51
2023/02/14 09:13:39;;;;;;;36.10;23.20;;;9.10;99.90;;;;;;5069544;28;20424;-49
2023/02/14 09:16:08;;;;;;;34.40;23.97;;;8.80;99.90;;;;;;5069484;28;20459;-50
2023/02/14 09:18:35;;;;;;;38.67;24.03;;;9.20;99.90;;;;;;5068139;28;20432;-51
2023/02/14 09:21:06;;;;;;;34.97;26.80;;;9.40;99.90;;;;;;5067419;28;20794;-50
2023/02/14 09:23:32;;;;;;;34.83;25.27;;;9.00;99.90;;;;;;5051420;28;20439;-51
2023/02/14 09:26:04;;;;;;;37.93;25.83;;;9.40;99.90;;;;;;5063465;28;20465;-50
2023/02/14 09:28:31;;;;;;;34.37;23.60;;;9.30;99.90;;;;;;5074559;28;20440;-50
2023/02/14 09:30:59;;;;;;;41.05;28.65;;;9.30;99.90;;;;;;5073381;28;20408;-51
2023/02/14 09:33:28;;;;;;;37.53;25.80;;;10.00;99.90;;;;;;5075081;28;20430;-52
2023/02/14 09:38:41;;;;;;;38.00;26.33;;;9.50;99.90;;;;;;5074357;28;20403;-50
2023/02/14 09:41:09;;;;;;;35.27;26.43;;;9.40;99.90;;;;;;5074691;28;20412;-50
2023/02/14 09:43:41;;;;;;;40.53;26.03;;;9.50;99.90;;;;;;5074254;28;20420;-51
2023/02/14 09:46:14;;;;;;;33.23;24.53;;;9.40;99.90;;;;;;5056387;28;20446;-52
2023/02/14 09:48:46;;;;;;;40.43;27.40;;;9.50;99.90;;;;;;5074031;28;20456;-51
2023/02/14 09:51:16;;;;;;;34.43;24.87;;;9.20;99.90;;;;;;5074272;28;20783;-51
2023/02/14 09:53:46;;;;;;;39.97;25.40;;;9.40;99.90;;;;;;5074594;28;20417;-51
2023/02/14 09:56:19;;;;;;;44.07;27.30;;;9.50;99.90;;;;;;5074863;28;20440;-51
2023/02/14 09:58:52;;;;;;;41.57;26.67;;;9.60;99.90;;;;;;5074273;28;20413;-52
2023/02/14 10:01:23;;;;;;;40.30;27.70;;;9.30;99.90;;;;;;5056465;28;20412;-52
2023/02/14 10:04:15;;;;;;;38.53;27.63;;;9.40;99.90;;;;;;5074086;28;20444;-52
2023/02/14 10:06:49;;;;;;;36.70;26.47;;;9.50;99.90;;;;;;5074154;28;20430;-50
2023/02/14 10:09:33;;;;;;;39.73;26.83;;;9.40;99.90;;;;;;5073658;28;20542;-52
2023/02/14 10:12:01;;;;;;;40.83;25.70;;;9.30;99.90;;;;;;5089591;28;20437;-50
2023/02/14 10:14:32;;;;;;;70.43;48.10;;;9.30;99.90;;;;;;5073945;28;20408;-52
2023/02/14 10:17:06;;;;;;;39.37;26.57;;;9.40;99.90;;;;;;5073927;28;20819;-51
2023/02/14 10:19:39;;;;;;;35.97;25.37;;;9.30;99.90;;;;;;5073669;28;20454;-51
2023/02/14 10:22:11;;;;;;;36.00;25.10;;;9.10;99.90;;;;;;5074023;28;20430;-51
2023/02/14 10:24:42;;;;;;;36.60;26.03;;;9.60;99.90;;;;;;5073727;28;20519;-51
2023/02/14 10:27:17;;;;;;;33.63;23.57;;;9.70;99.90;;;;;;5073634;28;20400;-50
2023/02/14 10:29:43;;;;;;;36.33;24.60;;;9.60;99.90;;;;;;5073187;28;20408;-51
2023/02/14 10:32:14;;;;;;;37.17;26.20;;;9.60;99.90;;;;;;5073817;28;20408;-51
2023/02/14 10:34:47;;;;;;;38.50;25.63;;;9.60;99.90;;;;;;5073696;28;20917;-51
2023/02/14 10:37:25;;;;;;;40.00;26.23;;;9.70;99.90;;;;;;5072897;28;20445;-50
2023/02/14 10:40:08;;;;;;;36.23;25.17;;;9.60;99.90;;;;;;5073591;28;20401;-51
2023/02/14 10:42:42;;;;;;;28.20;22.60;;;9.50;99.90;;;;;;5089067;28;20458;-52
2023/02/14 10:45:20;;;;;;;47.47;26.30;;;9.30;99.90;;;;;;5073376;28;20455;-50
2023/02/14 10:47:54;;;;;;;33.57;25.00;;;9.90;99.90;;;;;;5073352;28;20967;-52
2023/02/14 10:50:30;;;;;;;35.80;24.50;;;9.70;99.90;;;;;;5073295;28;20407;-51
2023/02/14 10:53:08;;;;;;;31.37;23.87;;;9.60;99.90;;;;;;5073216;28;20447;-51
2023/02/14 10:55:43;;;;;;;35.70;24.77;;;9.90;99.90;;;;;;5073432;28;20480;-51
2023/02/14 10:58:14;;;;;;;38.50;26.10;;;9.70;99.90;;;;;;5096739;22;20488;-50
2023/02/14 11:00:49;;;;;;;37.43;25.73;;;9.30;99.90;;;;;;5073305;28;20449;-51
2023/02/14 11:03:16;;;;;;;43.53;26.87;;;9.80;99.90;;;;;;5073018;28;20437;-52
2023/02/14 11:05:47;;;;;;;33.63;24.10;;;9.90;99.90;;;;;;5073023;28;20445;-50
2023/02/14 11:08:24;;;;;;;34.90;23.47;;;9.90;99.90;;;;;;5072616;28;20550;-50
2023/02/14 11:10:52;;;;;;;43.33;24.53;;;9.80;99.90;;;;;;5072298;28;20442;-50
2023/02/14 11:13:30;;;;;;;37.30;24.63;;;10.00;99.90;;;;;;5073814;28;20456;-50
2023/02/14 11:16:01;;;;;;;34.03;23.37;;;9.90;99.90;;;;;;5073165;28;20408;-49
2023/02/14 11:18:31;;;;;;;33.40;22.70;;;10.00;99.90;;;;;;5073073;28;21003;-50
2023/02/14 11:21:10;;;;;;;29.93;24.10;;;9.90;99.90;;;;;;5073229;28;20425;-51
2023/02/14 11:23:41;;;;;;;35.63;25.00;;;10.10;99.90;;;;;;5072706;28;20434;-49
2023/02/14 11:26:17;;;;;;;31.70;24.67;;;10.10;99.90;;;;;;5072796;28;20438;-51
2023/02/14 11:28:48;;;;;;;31.30;24.33;;;10.60;99.90;;;;;;5072876;28;20528;-50
2023/02/14 11:31:28;;;;;;;59.27;44.60;;;10.10;99.90;;;;;;5073040;28;20435;-51
2023/02/14 11:33:56;;;;;;;47.37;32.60;;;10.20;99.90;;;;;;5073276;28;20434;-50
2023/02/14 11:36:24;;;;;;;33.00;22.17;;;10.20;99.90;;;;;;5073015;28;20425;-50
2023/02/14 11:38:58;;;;;;;30.20;25.00;;;10.50;99.90;;;;;;5071339;28;20509;-50
2023/02/14 11:41:24;;;;;;;34.33;23.80;;;10.30;99.50;;;;;;5071238;28;20265;-51
2023/02/14 11:43:52;;;;;;;31.17;21.90;;;10.20;99.30;;;;;;5072483;28;20813;-50
2023/02/14 11:46:26;;;;;;;33.03;23.90;;;9.90;99.60;;;;;;5072367;28;20870;-51
2023/02/14 11:48:59;;;;;;;31.87;24.90;;;10.30;99.30;;;;;;5071029;28;20480;-51
2023/02/14 11:51:30;;;;;;;35.93;23.53;;;10.10;99.50;;;;;;5070995;28;20814;-50
2023/02/14 11:54:03;;;;;;;33.63;25.73;;;10.30;99.60;;;;;;5070707;28;20883;-51
2023/02/14 11:56:46;;;;;;;31.70;23.20;;;10.30;99.50;;;;;;5070247;28;20462;-50
2023/02/14 11:59:21;;;;;;;33.00;22.23;;;10.50;99.60;;;;;;5071874;28;20966;-51
2023/02/14 12:01:48;;;;;;;29.63;23.40;;;10.70;99.70;;;;;;5072431;28;20926;-50
2023/02/14 12:04:19;;;;;;;31.77;22.57;;;10.20;99.30;;;;;;5071915;28;20533;-51
2023/02/14 12:06:48;;;;;;;34.47;23.33;;;10.20;99.10;;;;;;5071706;28;20941;-50
2023/02/14 12:09:26;;;;;;;31.93;25.60;;;10.30;99.20;;;;;;5071504;28;20471;-50
2023/02/14 12:11:55;;;;;;;36.07;25.10;;;10.30;99.30;;;;;;5072276;28;20438;-51
2023/02/14 12:14:26;;;;;;;38.53;26.57;;;10.50;99.40;;;;;;5072326;28;20771;-51
2023/02/14 12:16:57;;;;;;;30.67;22.90;;;10.30;99.40;;;;;;5072466;28;20470;-50
2023/02/14 12:19:34;;;;;;;30.87;23.37;;;10.40;99.30;;;;;;5072254;28;20899;-50
2023/02/14 12:22:05;;;;;;;28.70;22.20;;;10.20;99.10;;;;;;5071727;28;20467;-50
2023/02/14 12:24:36;;;;;;;25.03;21.43;;;10.30;98.90;;;;;;5072039;28;20438;-50
2023/02/14 12:27:17;;;;;;;28.60;21.90;;;10.40;98.70;;;;;;5072377;28;20860;-50
2023/02/14 12:29:48;;;;;;;33.67;23.77;;;10.30;98.80;;;;;;5071130;28;21164;-52
2023/02/14 12:32:21;;;;;;;28.30;22.33;;;10.40;98.80;;;;;;5071247;28;20405;-50
2023/02/14 12:34:48;;;;;;;32.30;23.97;;;10.40;98.90;;;;;;5071318;28;20413;-51
2023/02/14 12:37:34;;;;;;;30.30;24.30;;;10.30;98.80;;;;;;5071174;28;20951;-50
2023/02/14 12:40:11;;;;;;;29.57;21.90;;;10.30;98.80;;;;;;5071752;28;20434;-51
2023/02/14 12:42:53;;;;;;;28.60;22.07;;;10.50;98.90;;;;;;5071240;28;20887;-49
2023/02/14 12:45:25;;;;;;;26.87;20.50;;;10.60;98.90;;;;;;5071765;28;20749;-50
2023/02/14 12:48:01;;;;;;;29.93;22.60;;;10.40;98.70;;;;;;5070107;28;20489;-50
2023/02/14 12:50:35;;;;;;;31.35;26.20;;;10.60;98.90;;;;;;5068977;28;20430;-51
2023/02/14 12:53:24;;;;;;;27.77;22.83;;;10.90;98.30;;;;;;5075910;28;20469;-51
2023/02/14 12:56:01;;;;;;;27.80;22.07;;;10.70;98.20;;;;;;5092260;28;20427;-51
2023/02/14 12:58:41;;;;;;;30.77;24.10;;;10.70;98.30;;;;;;5091306;28;20461;-51
2023/02/14 13:01:38;;;;;;;28.10;21.70;;;10.80;98.50;;;;;;5095961;28;20426;-50
2023/02/14 13:04:28;;;;;;;30.87;22.63;;;10.90;98.50;;;;;;5076414;28;20503;-50
2023/02/14 13:07:04;;;;;;;29.07;22.17;;;11.00;98.70;;;;;;5075546;28;20418;-50